createdAt,value
2019-05-22T00:00:04.889Z,1055.87
2019-05-22T00:01:04.786Z,1055.78
2019-05-22T00:02:04.793Z,1055.35
2019-05-22T00:03:04.837Z,1055.39
2019-05-22T00:04:04.786Z,1055.12
2019-05-22T00:05:04.823Z,1054.96
2019-05-22T00:06:04.816Z,1054.94
2019-05-22T00:07:04.806Z,1054.61
2019-05-22T00:08:04.794Z,1054.98
2019-05-22T00:09:04.816Z,1055.08
2019-05-22T00:10:04.829Z,1055.03
2019-05-22T00:11:04.814Z,1055.09
2019-05-22T00:12:04.820Z,1054.87
2019-05-22T00:13:04.809Z,1054.69
2019-05-22T00:14:04.812Z,1054.51
2019-05-22T00:15:04.953Z,1054.38
2019-05-22T00:16:04.849Z,1054.15
2019-05-22T00:17:04.816Z,1054.05
2019-05-22T00:18:04.865Z,1054.04
2019-05-22T00:19:04.835Z,1053.7
2019-05-22T00:20:04.858Z,1053.94
2019-05-22T00:21:04.848Z,1053.69
2019-05-22T00:22:04.826Z,1053.49
2019-05-22T00:23:04.835Z,1053.39
2019-05-22T00:24:04.822Z,1053.2
2019-05-22T00:25:04.856Z,1052.79
2019-05-22T00:26:04.854Z,1052.42
2019-05-22T00:27:05.056Z,1052.52
2019-05-22T00:28:04.835Z,1052.36
2019-05-22T00:29:04.839Z,1052.19
2019-05-22T00:30:04.894Z,1052.04
2019-05-22T00:31:04.871Z,1051.85
2019-05-22T00:32:04.860Z,1051.35
2019-05-22T00:33:04.850Z,1051.4
2019-05-22T00:34:04.848Z,1051.33
2019-05-22T00:35:04.882Z,1051.12
2019-05-22T00:36:04.881Z,1051.19
2019-05-22T00:37:04.872Z,1051.19
2019-05-22T00:38:04.903Z,1051.02
2019-05-22T00:39:04.888Z,1050.78
2019-05-22T00:40:04.996Z,1050.98
2019-05-22T00:41:04.878Z,1050.9
2019-05-22T00:42:04.858Z,1050.75
2019-05-22T00:43:11.099Z,1050.62
2019-05-22T00:44:04.871Z,1050.58
2019-05-22T00:45:04.920Z,1050.23
2019-05-22T00:46:04.915Z,1050.65
2019-05-22T00:47:04.901Z,1050.8
2019-05-22T00:48:04.889Z,1050.46
2019-05-22T00:49:04.873Z,1050.27
2019-05-22T00:50:04.897Z,1050.25
2019-05-22T00:51:04.920Z,1050.07
2019-05-22T00:52:04.918Z,1050.09
2019-05-22T00:53:04.898Z,1049.71
2019-05-22T00:54:04.879Z,1049.62
2019-05-22T00:55:04.936Z,1049.38
2019-05-22T00:56:04.919Z,1049.5
2019-05-22T00:57:04.882Z,1049.36
2019-05-22T00:58:04.913Z,1049.29
2019-05-22T00:59:04.919Z,1049.12
2019-05-22T01:00:04.970Z,1049.16
2019-05-22T01:01:04.913Z,1049.02
2019-05-22T01:02:04.904Z,1049.37
2019-05-22T01:03:04.904Z,1049.29
2019-05-22T01:04:04.907Z,1048.95
2019-05-22T01:05:04.955Z,1049.18
2019-05-22T01:06:04.901Z,1049.45
2019-05-22T01:07:04.906Z,1049.13
2019-05-22T01:08:04.956Z,1049.01
2019-05-22T01:09:04.945Z,1049.01
2019-05-22T01:10:05.297Z,1048.91
2019-05-22T01:11:04.913Z,1048.99
2019-05-22T01:12:04.965Z,1048.81
2019-05-22T01:13:04.908Z,1048.91
2019-05-22T01:14:04.930Z,1048.83
2019-05-22T01:15:05.061Z,1048.91
2019-05-22T01:16:04.964Z,1049.01
2019-05-22T01:17:04.945Z,1048.8
2019-05-22T01:18:04.941Z,1048.94
2019-05-22T01:19:04.954Z,1049.08
2019-05-22T01:20:04.978Z,1048.98
2019-05-22T01:21:04.941Z,1048.95
2019-05-22T01:22:05.006Z,1048.99
2019-05-22T01:23:04.927Z,1048.52
2019-05-22T01:24:04.960Z,1048.83
2019-05-22T01:25:04.988Z,1048.9
2019-05-22T01:26:05.317Z,1048.72
2019-05-22T01:27:04.945Z,1048.83
2019-05-22T01:28:04.962Z,1048.66
2019-05-22T01:29:04.930Z,1048.72
2019-05-22T01:30:05.000Z,1048.34
2019-05-22T01:31:04.944Z,1048.24
2019-05-22T01:32:05.238Z,1048.49
2019-05-22T01:33:04.957Z,1048.34
2019-05-22T01:34:04.965Z,1048.09
2019-05-22T01:35:04.967Z,1048.15
2019-05-22T01:36:04.958Z,1048
2019-05-22T01:37:04.992Z,1047.78
2019-05-22T01:38:04.953Z,1047.56
2019-05-22T01:39:04.973Z,1047.54
2019-05-22T01:40:05.021Z,1047.52
2019-05-22T01:41:04.964Z,1047.65
2019-05-22T01:42:04.976Z,1047.24
2019-05-22T01:43:04.981Z,1047.53
2019-05-22T01:44:04.964Z,1047.39
2019-05-22T01:45:06.687Z,1047.66
2019-05-22T01:46:06.170Z,1047.7
2019-05-22T01:47:04.997Z,1047.45
2019-05-22T01:48:04.977Z,1047.44
2019-05-22T01:49:04.988Z,1047.33
2019-05-22T01:50:05.035Z,1047.37
2019-05-22T01:51:05.180Z,1047.42
2019-05-22T01:52:04.986Z,1047.39
2019-05-22T01:53:04.972Z,1047.56
2019-05-22T01:54:04.975Z,1047.31
2019-05-22T01:55:05.026Z,1047.27
2019-05-22T01:56:05.416Z,1047.15
2019-05-22T01:57:04.978Z,1046.78
2019-05-22T01:58:04.984Z,1046.63
2019-05-22T01:59:05.565Z,1046.47
2019-05-22T02:00:05.034Z,1046.31
2019-05-22T02:01:06.069Z,1045.79
2019-05-22T02:02:05.053Z,1045.83
2019-05-22T02:03:04.997Z,1046.12
2019-05-22T02:04:05.003Z,1046.05
2019-05-22T02:05:05.328Z,1046.58
2019-05-22T02:06:05.016Z,1046.33
2019-05-22T02:07:05.041Z,1046.32
2019-05-22T02:08:05.049Z,1046.49
2019-05-22T02:09:06.514Z,1046.34
2019-05-22T02:10:05.845Z,1046.28
2019-05-22T02:11:05.236Z,1046.29
2019-05-22T02:12:05.031Z,1045.92
2019-05-22T02:13:05.026Z,1046.16
2019-05-22T02:14:05.873Z,1045.81
2019-05-22T02:15:05.052Z,1045.81
2019-05-22T02:16:06.558Z,1045.39
2019-05-22T02:17:05.042Z,1045.1
2019-05-22T02:18:05.045Z,1044.98
2019-05-22T02:19:05.015Z,1044.73
2019-05-22T02:20:05.236Z,1044.14
2019-05-22T02:21:05.054Z,1044.42
2019-05-22T02:22:05.035Z,1044.51
2019-05-22T02:23:05.041Z,1044.37
2019-05-22T02:24:05.051Z,1044.25
2019-05-22T02:25:05.081Z,1044.23
2019-05-22T02:26:05.060Z,1044
2019-05-22T02:27:05.064Z,1044.38
2019-05-22T02:28:05.053Z,1044.23
2019-05-22T02:29:05.041Z,1044.46
2019-05-22T02:30:05.095Z,1044.52
2019-05-22T02:31:05.052Z,1044.76
2019-05-22T02:32:05.036Z,1044.7
2019-05-22T02:33:05.085Z,1044.79
2019-05-22T02:34:05.066Z,1044.57
2019-05-22T02:35:05.097Z,1044.58
2019-05-22T02:36:05.051Z,1044.54
2019-05-22T02:37:05.072Z,1044.53
2019-05-22T02:38:05.077Z,1044.25
2019-05-22T02:39:05.072Z,1043.88
2019-05-22T02:40:05.109Z,1044.35
2019-05-22T02:41:05.059Z,1044.16
2019-05-22T02:42:05.065Z,1044.3
2019-05-22T02:43:05.078Z,1044.02
2019-05-22T02:44:05.053Z,1044.03
2019-05-22T02:45:05.121Z,1043.73
2019-05-22T02:46:13.603Z,1043.63
2019-05-22T02:47:17.593Z,1043.4
2019-05-22T02:48:05.094Z,1043.26
2019-05-22T02:49:05.061Z,1043.38
2019-05-22T02:50:05.184Z,1043.43
2019-05-22T02:51:05.074Z,1043.09
2019-05-22T02:52:05.111Z,1043.29
2019-05-22T02:53:05.070Z,1043.24
2019-05-22T02:54:05.085Z,1043.03
2019-05-22T02:55:05.126Z,1042.74
2019-05-22T02:56:05.083Z,1043.16
2019-05-22T02:57:05.079Z,1043.07
2019-05-22T02:58:05.078Z,1042.59
2019-05-22T02:59:05.106Z,1042.84
2019-05-22T03:00:05.151Z,1042.89
2019-05-22T03:01:05.088Z,1042.84
2019-05-22T03:02:05.088Z,1042.6
2019-05-22T03:03:05.100Z,1042.5
2019-05-22T03:04:05.103Z,1041.94
2019-05-22T03:05:05.153Z,1042.27
2019-05-22T03:06:05.119Z,1042.45
2019-05-22T03:07:05.120Z,1042.27
2019-05-22T03:08:05.111Z,1042.37
2019-05-22T03:09:05.128Z,1042.59
2019-05-22T03:10:05.160Z,1042.48
2019-05-22T03:11:05.105Z,1042.6
2019-05-22T03:12:05.112Z,1042.83
2019-05-22T03:13:05.135Z,1042.83
2019-05-22T03:14:05.149Z,1042.68
2019-05-22T03:15:05.128Z,1042.62
2019-05-22T03:16:12.965Z,1042.38
2019-05-22T03:17:05.110Z,1042.12
2019-05-22T03:18:05.109Z,1042.05
2019-05-22T03:19:08.593Z,1042.16
2019-05-22T03:20:05.170Z,1042.63
2019-05-22T03:21:05.155Z,1042.37
2019-05-22T03:22:05.138Z,1042.6
2019-05-22T03:23:05.143Z,1042.66
2019-05-22T03:24:05.131Z,1042.47
2019-05-22T03:25:05.179Z,1042.7
2019-05-22T03:26:05.526Z,1042.54
2019-05-22T03:27:05.151Z,1042.86
2019-05-22T03:28:05.314Z,1043.08
2019-05-22T03:29:05.147Z,1042.95
2019-05-22T03:30:05.197Z,1043.14
2019-05-22T03:31:05.160Z,1043.12
2019-05-22T03:32:05.185Z,1042.94
2019-05-22T03:33:05.173Z,1043.08
2019-05-22T03:34:05.188Z,1042.89
2019-05-22T03:35:05.194Z,1043.22
2019-05-22T03:36:05.339Z,1042.91
2019-05-22T03:37:05.161Z,1042.83
2019-05-22T03:38:05.206Z,1043.06
2019-05-22T03:39:05.166Z,1042.87
2019-05-22T03:40:05.219Z,1042.71
2019-05-22T03:41:05.163Z,1043.01
2019-05-22T03:42:05.177Z,1042.66
2019-05-22T03:43:05.207Z,1042.65
2019-05-22T03:44:05.185Z,1042.48
2019-05-22T03:45:05.211Z,1042.59
2019-05-22T03:46:05.175Z,1042.31
2019-05-22T03:47:05.231Z,1042.12
2019-05-22T03:48:05.188Z,1042.25
2019-05-22T03:49:05.203Z,1042.02
2019-05-22T03:50:05.202Z,1042.36
2019-05-22T03:51:05.194Z,1042.3
2019-05-22T03:52:05.176Z,1042.34
2019-05-22T03:53:05.179Z,1042.72
2019-05-22T03:54:05.197Z,1042.64
2019-05-22T03:55:05.252Z,1042.75
2019-05-22T03:56:05.202Z,1042.51
2019-05-22T03:57:05.190Z,1042.42
2019-05-22T03:58:05.203Z,1042.12
2019-05-22T03:59:05.179Z,1042.31
2019-05-22T04:00:05.245Z,1042.16
2019-05-22T04:01:05.198Z,1041.7
2019-05-22T04:02:05.202Z,1041.73
2019-05-22T04:03:05.189Z,1041.66
2019-05-22T04:04:05.198Z,1041.47
2019-05-22T04:05:05.240Z,1041.94
2019-05-22T04:06:05.189Z,1041.76
2019-05-22T04:07:05.196Z,1041.55
2019-05-22T04:08:05.219Z,1041.27
2019-05-22T04:09:05.218Z,1041.26
2019-05-22T04:10:05.252Z,1041.1
2019-05-22T04:11:05.197Z,1041.06
2019-05-22T04:16:22.884Z,1041.12
2019-05-22T04:17:22.787Z,1041.2
2019-05-22T04:18:23.111Z,1041.09
2019-05-22T04:19:22.799Z,1041.61
2019-05-22T04:20:22.866Z,1041.78
2019-05-22T04:21:22.832Z,1042.34
2019-05-22T04:22:22.817Z,1042.36
2019-05-22T04:23:22.804Z,1043.03
2019-05-22T04:24:22.855Z,1043.04
2019-05-22T04:26:41.253Z,1043.23
2019-05-22T04:27:41.259Z,1043.29
2019-05-22T04:28:41.246Z,1043.45
2019-05-22T04:29:41.218Z,1043.78
2019-05-22T04:30:41.217Z,1043.95
2019-05-22T04:31:41.250Z,1043.87
2019-05-22T04:32:41.214Z,1043.98
2019-05-22T04:33:41.242Z,1044.04
2019-05-22T04:34:41.252Z,1044.15
2019-05-22T04:35:41.250Z,1044.09
2019-05-22T04:36:41.245Z,1044.27
2019-05-22T04:37:41.249Z,1044.3
2019-05-22T04:38:41.234Z,1044.58
2019-05-22T04:39:41.262Z,1044.38
2019-05-22T04:40:41.249Z,1044.55
2019-05-22T04:41:41.274Z,1044.4
2019-05-22T04:42:41.256Z,1044.75
2019-05-22T04:43:41.270Z,1044.91
2019-05-22T04:44:41.232Z,1044.71
2019-05-22T04:45:41.241Z,1044.95
2019-05-22T04:46:41.256Z,1044.88
2019-05-22T04:47:41.288Z,1045.13
2019-05-22T04:48:45.351Z,1045.15
2019-05-22T04:49:41.238Z,1045.34
2019-05-22T04:50:41.244Z,1045.26
2019-05-22T04:51:41.271Z,1045.19
2019-05-22T04:52:41.275Z,1045.03
2019-05-22T04:53:41.282Z,1045.15
2019-05-22T04:54:41.293Z,1045.26
2019-05-22T04:55:41.275Z,1045.17
2019-05-22T04:56:41.286Z,1045.23
2019-05-22T04:57:41.279Z,1045.34
2019-05-22T04:58:41.253Z,1045.25
2019-05-22T04:59:41.294Z,1045.44
2019-05-22T05:00:41.302Z,1045.31
2019-05-22T05:01:41.304Z,1045.5
2019-05-22T05:02:41.283Z,1045.8
2019-05-22T05:03:41.273Z,1045.99
2019-05-22T05:04:41.294Z,1046.26
2019-05-22T05:05:41.305Z,1046.08
2019-05-22T05:06:41.311Z,1046.42
2019-05-22T05:07:41.296Z,1046.53
2019-05-22T05:08:41.353Z,1046.79
2019-05-22T05:09:41.330Z,1046.88
2019-05-22T05:10:41.298Z,1046.93
2019-05-22T05:11:41.334Z,1047.36
2019-05-22T05:12:41.330Z,1047.28
2019-05-22T05:13:41.321Z,1047.5
2019-05-22T05:14:41.305Z,1047.66
2019-05-22T05:15:41.331Z,1047.88
2019-05-22T05:16:41.350Z,1047.61
2019-05-22T05:17:41.298Z,1048
2019-05-22T05:18:41.295Z,1048.08
2019-05-22T05:19:41.291Z,1047.66
2019-05-22T05:20:41.355Z,1048.09
2019-05-22T05:21:41.325Z,1048.32
2019-05-22T05:22:41.311Z,1047.99
2019-05-22T05:23:41.331Z,1048.07
2019-05-22T05:24:41.303Z,1048
2019-05-22T05:25:41.324Z,1048.15
2019-05-22T05:26:41.396Z,1047.96
2019-05-22T05:27:41.304Z,1048.22
2019-05-22T05:32:09.442Z,1049.74
2019-05-22T05:33:09.416Z,1049.8
2019-05-22T05:34:09.419Z,1049.64
2019-05-22T05:35:09.450Z,1050.17
2019-05-22T05:36:09.454Z,1050.47
2019-05-22T05:37:09.466Z,1050.73
2019-05-22T05:38:09.445Z,1051
2019-05-22T05:39:09.455Z,1051.18
2019-05-22T05:40:09.556Z,1051.17
2019-05-22T05:41:09.420Z,1051.36
2019-05-22T05:42:09.472Z,1051.47
2019-05-22T05:43:09.473Z,1051.41
2019-05-22T05:44:09.425Z,1051.51
2019-05-22T05:45:12.719Z,1051.61
2019-05-22T05:46:09.453Z,1051.69
2019-05-22T05:47:09.480Z,1051.62
2019-05-22T05:48:09.451Z,1051.78
2019-05-22T05:49:09.449Z,1052.06
2019-05-22T05:50:09.461Z,1052.17
2019-05-22T05:51:09.460Z,1052.09
2019-05-22T05:52:09.474Z,1052.22
2019-05-22T05:53:09.483Z,1052.52
2019-05-22T05:54:09.448Z,1052.91
2019-05-22T05:55:09.477Z,1052.95
2019-05-22T05:56:09.457Z,1053.28
2019-05-22T05:57:09.462Z,1053.32
2019-05-22T05:58:09.454Z,1053.31
2019-05-22T05:59:09.479Z,1053.12
2019-05-22T06:00:09.447Z,1053.45
2019-05-22T06:01:10.376Z,1053.39
2019-05-22T06:02:09.502Z,1053.71
2019-05-22T06:03:09.508Z,1054.34
2019-05-22T06:04:09.452Z,1054.13
2019-05-22T06:05:09.475Z,1054.89
2019-05-22T06:06:09.484Z,1055.25
2019-05-22T06:07:09.490Z,1055.73
2019-05-22T06:08:09.517Z,1055.92
2019-05-22T06:09:09.488Z,1056.27
2019-05-22T06:10:09.490Z,1056.32
2019-05-22T06:11:25.244Z,1056.37
2019-05-22T06:12:25.239Z,1056.62
2019-05-22T06:13:25.236Z,1056.79
2019-05-22T06:14:25.231Z,1056.99
2019-05-22T06:15:25.264Z,1057.1
2019-05-22T06:16:33.824Z,1057.06
2019-05-22T06:17:25.222Z,1057.25
2019-05-22T06:18:25.229Z,1057.53
2019-05-22T06:19:25.241Z,1058.24
2019-05-22T06:20:25.222Z,1058.72
2019-05-22T06:21:25.232Z,1059.26
2019-05-22T06:22:25.257Z,1059.18
2019-05-22T06:23:25.243Z,1059.31
2019-05-22T06:24:25.252Z,1058.91
2019-05-22T06:25:25.235Z,1058.85
2019-05-22T06:26:25.247Z,1059.13
2019-05-22T06:27:25.228Z,1058.91
2019-05-22T06:28:25.254Z,1058.61
2019-05-22T06:29:27.742Z,1058.5
2019-05-22T06:30:25.266Z,1058.35
2019-05-22T06:31:25.259Z,1058.15
2019-05-22T06:32:25.263Z,1058.13
2019-05-22T06:33:25.249Z,1058.16
2019-05-22T06:34:25.297Z,1058.37
2019-05-22T06:35:25.265Z,1058.24
2019-05-22T06:36:25.564Z,1058.26
2019-05-22T06:37:25.261Z,1058.43
2019-05-22T06:38:25.284Z,1058.66
2019-05-22T06:39:25.274Z,1058.74
2019-05-22T06:40:25.296Z,1059.15
2019-05-22T06:41:25.281Z,1058.94
2019-05-22T06:42:25.289Z,1059.19
2019-05-22T06:43:25.278Z,1058.81
2019-05-22T06:44:25.313Z,1059.15
2019-05-22T06:45:25.268Z,1059.17
2019-05-22T06:46:25.274Z,1059.24
2019-05-22T06:47:25.284Z,1059.18
2019-05-22T06:48:25.341Z,1059.41
2019-05-22T06:49:25.277Z,1059.61
2019-05-22T06:50:25.288Z,1059.96
2019-05-22T06:51:25.277Z,1060.47
2019-05-22T06:52:25.306Z,1060.42
2019-05-22T06:53:25.269Z,1060.74
2019-05-22T06:54:25.708Z,1060.85
2019-05-22T06:55:25.300Z,1060.81
2019-05-22T06:56:25.289Z,1060.77
2019-05-22T06:57:25.274Z,1060.57
2019-05-22T06:58:25.306Z,1060.34
2019-05-22T06:59:25.291Z,1060.33
2019-05-22T07:00:25.315Z,1059.91
2019-05-22T07:01:25.322Z,1060.05
2019-05-22T07:02:25.310Z,1060
2019-05-22T07:03:25.298Z,1060.4
2019-05-22T07:04:25.325Z,1060.73
2019-05-22T07:05:25.313Z,1061.46
2019-05-22T07:06:25.317Z,1062.08
2019-05-22T07:07:25.324Z,1063.07
2019-05-22T07:08:25.340Z,1063.67
2019-05-22T07:09:25.312Z,1064.69
2019-05-22T07:10:25.324Z,1065.73
2019-05-22T07:11:25.410Z,1066.1
2019-05-22T07:12:25.332Z,1066.69
2019-05-22T07:13:25.338Z,1067.45
2019-05-22T07:14:25.306Z,1068.45
2019-05-22T07:15:25.363Z,1069.24
2019-05-22T07:16:25.356Z,1070.49
2019-05-22T07:17:25.630Z,1071.51
2019-05-22T07:18:25.333Z,1072.47
2019-05-22T07:19:25.323Z,1073.53
2019-05-22T07:20:25.350Z,1074.22
2019-05-22T07:21:33.542Z,1074.96
2019-05-22T07:22:25.338Z,1075.56
2019-05-22T07:23:25.377Z,1076.41
2019-05-22T07:24:25.370Z,1076.94
2019-05-22T07:25:25.332Z,1077.08
2019-05-22T07:26:25.346Z,1077.09
2019-05-22T07:27:25.330Z,1077.19
2019-05-22T07:28:25.354Z,1076.93
2019-05-22T07:29:25.363Z,1076.43
2019-05-22T07:30:25.329Z,1076.33
2019-05-22T07:31:25.362Z,1076.26
2019-05-22T07:32:25.343Z,1076.2
2019-05-22T07:33:25.369Z,1076.01
2019-05-22T07:34:25.350Z,1076.05
2019-05-22T07:35:42.352Z,1076.17
2019-05-22T07:36:25.364Z,1076.32
2019-05-22T07:37:25.353Z,1076.73
2019-05-22T07:38:25.364Z,1077.37
2019-05-22T07:39:25.341Z,1077.9
2019-05-22T07:40:25.353Z,1078.42
2019-05-22T07:41:25.361Z,1078.95
2019-05-22T07:42:25.390Z,1079.37
2019-05-22T07:43:25.367Z,1079.82
2019-05-22T07:44:25.381Z,1080.09
2019-05-22T07:45:25.494Z,1080.44
2019-05-22T07:46:25.372Z,1080.69
2019-05-22T07:47:25.796Z,1080.79
2019-05-22T07:48:25.365Z,1081.46
2019-05-22T07:49:25.393Z,1081.56
2019-05-22T07:50:25.377Z,1081.59
2019-05-22T07:51:25.387Z,1082.4
2019-05-22T07:52:25.391Z,1082.38
2019-05-22T07:53:25.381Z,1082.73
2019-05-22T07:54:25.401Z,1082.67
2019-05-22T07:55:25.386Z,1082.8
2019-05-22T07:56:25.396Z,1083.04
2019-05-22T07:57:25.403Z,1083.64
2019-05-22T07:58:25.407Z,1083.75
2019-05-22T07:59:25.411Z,1083.62
2019-05-22T08:00:25.379Z,1083.72
2019-05-22T08:01:25.384Z,1083.74
2019-05-22T08:02:25.393Z,1083.86
2019-05-22T08:03:25.424Z,1084.05
2019-05-22T08:04:25.390Z,1084.28
2019-05-22T08:05:25.417Z,1084.17
2019-05-22T08:06:25.403Z,1084.51
2019-05-22T08:07:25.450Z,1084.6
2019-05-22T08:11:53.636Z,1086.42
2019-05-22T08:12:53.619Z,1086.92
2019-05-22T08:13:53.603Z,1087.19
2019-05-22T08:14:53.657Z,1087.63
2019-05-22T08:15:53.624Z,1087.89
2019-05-22T08:16:53.967Z,1088.25
2019-05-22T08:17:53.612Z,1088.55
2019-05-22T08:18:53.616Z,1088.75
2019-05-22T08:19:53.606Z,1089.22
2019-05-22T08:22:13.875Z,1090.57
2019-05-22T08:28:51.156Z,1092.26
2019-05-22T08:29:51.030Z,1092.43
2019-05-22T08:30:51.039Z,1092.54
2019-05-22T08:31:51.079Z,1092.32
2019-05-22T08:32:51.121Z,1092.52
2019-05-22T08:33:51.166Z,1092.65
2019-05-22T08:34:51.089Z,1092.59
2019-05-22T08:35:51.049Z,1092.39
2019-05-22T08:36:51.053Z,1092.22
2019-05-22T08:37:51.040Z,1091.94
2019-05-22T08:38:51.049Z,1091.95
2019-05-22T08:39:51.039Z,1091.55
2019-05-22T08:40:51.021Z,1091.39
2019-05-22T08:41:51.072Z,1091.39
2019-05-22T08:42:51.060Z,1091.55
2019-05-22T08:44:11.871Z,1091.29
2019-05-22T08:44:51.070Z,1090.43
2019-05-22T08:45:51.135Z,1090.13
2019-05-22T08:46:54.705Z,1089.63
2019-05-22T08:47:51.061Z,1089.64
2019-05-22T08:48:51.064Z,1089.25
2019-05-22T08:49:51.067Z,1089.16
2019-05-22T08:50:51.181Z,1088.65
2019-05-22T08:51:51.068Z,1088.22
2019-05-22T08:52:51.072Z,1087.74
2019-05-22T08:53:51.085Z,1087.3
2019-05-22T08:54:51.063Z,1087.14
2019-05-22T08:55:51.070Z,1086.88
2019-05-22T08:56:51.074Z,1087.05
2019-05-22T08:57:51.111Z,1086.92
2019-05-22T08:58:51.068Z,1086.85
2019-05-22T08:59:51.079Z,1086.71
2019-05-22T09:00:51.064Z,1086.72
2019-05-22T09:01:51.189Z,1086.83
2019-05-22T09:06:20.506Z,1086.29
2019-05-22T09:07:20.490Z,1086.17
2019-05-22T09:08:20.475Z,1085.94
2019-05-22T09:09:20.510Z,1086.1
2019-05-22T09:10:20.508Z,1086.1
2019-05-22T09:11:20.522Z,1085.97
2019-05-22T09:12:20.527Z,1085.99
2019-05-22T09:13:20.529Z,1086.09
2019-05-22T09:14:20.499Z,1086.12
2019-05-22T09:15:20.482Z,1086.07
2019-05-22T09:16:20.509Z,1086.24
2019-05-22T09:17:20.580Z,1086.18
2019-05-22T09:18:20.518Z,1086.3
2019-05-22T09:19:20.757Z,1086.6
2019-05-22T09:21:41.346Z,1086.7
2019-05-22T09:22:41.665Z,1087.03
2019-05-22T09:23:41.267Z,1087.21
2019-05-22T09:24:41.246Z,1087.16
2019-05-22T09:26:45.969Z,1086.87
2019-05-22T09:26:57.319Z,1086.78
2019-05-22T09:27:57.327Z,1086.46
2019-05-22T09:28:57.305Z,1086.24
2019-05-22T09:29:57.382Z,1086.21
2019-05-22T09:30:57.331Z,1086.06
2019-05-22T09:31:57.375Z,1085.67
2019-05-22T09:32:57.340Z,1085.41
2019-05-22T09:33:57.354Z,1085.11
2019-05-22T09:34:57.333Z,1084.77
2019-05-22T09:35:57.337Z,1084.53
2019-05-22T09:36:57.362Z,1084.55
2019-05-22T09:37:57.352Z,1084.42
2019-05-22T09:38:57.340Z,1084.25
2019-05-22T09:39:57.342Z,1084.18
2019-05-22T09:40:57.357Z,1084.42
2019-05-22T09:41:57.357Z,1084.41
2019-05-22T09:42:57.365Z,1084.81
2019-05-22T09:43:57.344Z,1084.54
2019-05-22T09:44:57.354Z,1084.43
2019-05-22T09:45:57.360Z,1084.59
2019-05-22T09:47:00.268Z,1084.69
2019-05-22T09:47:57.343Z,1084.86
2019-05-22T09:48:57.345Z,1085.25
2019-05-22T09:49:57.372Z,1085.72
2019-05-22T09:50:57.361Z,1085.89
2019-05-22T09:51:57.360Z,1086.19
2019-05-22T09:52:58.229Z,1086.44
2019-05-22T09:53:57.344Z,1086.31
2019-05-22T09:54:57.359Z,1086.54
2019-05-22T09:55:57.443Z,1086.78
2019-05-22T09:56:57.364Z,1087.11
2019-05-22T09:57:57.405Z,1087.46
2019-05-22T09:58:57.381Z,1087.68
2019-05-22T09:59:57.373Z,1088.23
2019-05-22T10:00:57.377Z,1088.68
2019-05-22T10:01:57.403Z,1089.11
2019-05-22T10:02:57.384Z,1089.46
2019-05-22T10:03:57.373Z,1089.68
2019-05-22T10:04:57.359Z,1089.86
2019-05-22T10:05:57.419Z,1090.41
2019-05-22T10:06:57.388Z,1091.32
2019-05-22T10:08:00.848Z,1092.54
2019-05-22T10:08:57.369Z,1094.13
2019-05-22T10:09:57.387Z,1095.76
2019-05-22T10:10:57.399Z,1097.52
2019-05-22T10:11:57.421Z,1098.44
2019-05-22T10:12:57.389Z,1099.1
2019-05-22T10:13:57.378Z,1099.46
2019-05-22T10:14:57.382Z,1099.94
2019-05-22T10:15:57.419Z,1100.27
2019-05-22T10:16:58.547Z,1100.58
2019-05-22T10:17:57.438Z,1100.76
2019-05-22T10:18:57.396Z,1101.46
2019-05-22T10:19:57.408Z,1101.61
2019-05-22T10:20:57.434Z,1101.96
2019-05-22T10:21:57.704Z,1102.08
2019-05-22T10:23:12.471Z,1102.23
2019-05-22T10:23:57.439Z,1102.77
2019-05-22T10:25:13.697Z,1103.12
2019-05-22T10:25:57.421Z,1102.88
2019-05-22T10:26:57.434Z,1102.86
2019-05-22T10:27:59.277Z,1103.05
2019-05-22T10:28:57.424Z,1103.26
2019-05-22T10:29:57.432Z,1104.08
2019-05-22T10:30:58.246Z,1104.67
2019-05-22T10:31:58.148Z,1105.25
2019-05-22T10:32:57.412Z,1106.14
2019-05-22T10:33:57.417Z,1106.88
2019-05-22T10:34:57.867Z,1107.35
2019-05-22T10:35:57.676Z,1107.69
2019-05-22T10:36:57.437Z,1108.18
2019-05-22T10:37:57.456Z,1108.36
2019-05-22T10:38:57.525Z,1109.03
2019-05-22T10:39:57.471Z,1109.53
2019-05-22T10:40:59.122Z,1109.93
2019-05-22T10:41:57.449Z,1110.62
2019-05-22T10:42:57.450Z,1111.2
2019-05-22T10:43:57.438Z,1111.85
2019-05-22T10:44:57.497Z,1112.42
2019-05-22T10:47:09.405Z,1113.08
2019-05-22T10:47:59.961Z,1113.09
2019-05-22T10:48:59.962Z,1112.98
2019-05-22T10:49:59.970Z,1112.79
2019-05-22T10:50:59.958Z,1112.69
2019-05-22T10:51:59.978Z,1112.31
2019-05-22T10:52:59.966Z,1112.06
2019-05-22T10:53:59.969Z,1111.58
2019-05-22T10:54:59.973Z,1111.3
2019-05-22T10:55:59.995Z,1111.04
2019-05-22T10:56:59.975Z,1110.39
2019-05-22T10:57:59.985Z,1109.59
2019-05-22T10:59:01.613Z,1108.94
2019-05-22T10:59:59.988Z,1108.78
2019-05-22T11:00:59.974Z,1108.33
2019-05-22T11:01:59.970Z,1107.8
2019-05-22T11:02:59.999Z,1107.41
2019-05-22T11:04:00.003Z,1107.01
2019-05-22T11:04:59.980Z,1106.7
2019-05-22T11:06:06.880Z,1106.6
2019-05-22T11:06:59.973Z,1106.33
2019-05-22T11:07:59.983Z,1106.14
2019-05-22T11:08:59.992Z,1106.27
2019-05-22T11:10:00.000Z,1106.89
2019-05-22T11:11:00.027Z,1107.75
2019-05-22T11:12:00.006Z,1108.92
2019-05-22T11:13:00.000Z,1110.09
2019-05-22T11:14:01.884Z,1111.29
2019-05-22T11:14:59.984Z,1112.99
2019-05-22T11:16:00.017Z,1114.61
2019-05-22T11:17:10.702Z,1116.18
2019-05-22T11:18:00.015Z,1117.36
2019-05-22T11:19:00.016Z,1118.32
2019-05-22T11:20:00.020Z,1119.67
2019-05-22T11:20:59.991Z,1120.51
2019-05-22T11:22:00.019Z,1121.4
2019-05-22T11:23:00.025Z,1121.96
2019-05-22T11:24:00.039Z,1122.71
2019-05-22T11:25:00.036Z,1123.36
2019-05-22T11:26:00.050Z,1123.98
2019-05-22T11:27:00.027Z,1124.59
2019-05-22T11:28:00.020Z,1125.39
2019-05-22T11:29:00.033Z,1126.24
2019-05-22T11:30:14.467Z,1127.12
2019-05-22T11:31:01.165Z,1127.73
2019-05-22T11:32:00.023Z,1128.18
2019-05-22T11:33:00.030Z,1128.92
2019-05-22T11:34:00.014Z,1130.02
2019-05-22T11:35:00.439Z,1130.84
2019-05-22T11:36:00.051Z,1131.38
2019-05-22T11:37:00.038Z,1131.81
2019-05-22T11:38:00.058Z,1131.95
2019-05-22T11:39:00.049Z,1132.16
2019-05-22T11:40:00.064Z,1132.2
2019-05-22T11:41:00.056Z,1132.18
2019-05-22T11:42:00.056Z,1132.16
2019-05-22T11:43:00.070Z,1132.1
2019-05-22T11:44:00.041Z,1131.98
2019-05-22T11:45:00.070Z,1131.93
2019-05-22T11:46:00.111Z,1131.96
2019-05-22T11:47:00.066Z,1131.99
2019-05-22T11:48:00.078Z,1132.04
2019-05-22T11:49:00.060Z,1132.1
2019-05-22T11:50:00.058Z,1132.2
2019-05-22T11:51:00.962Z,1132.22
2019-05-22T11:52:00.084Z,1132.18
2019-05-22T11:53:00.220Z,1132.24
2019-05-22T11:54:08.995Z,1132.25
2019-05-22T11:55:00.067Z,1132.18
2019-05-22T11:56:00.058Z,1132.13
2019-05-22T11:57:00.059Z,1132.05
2019-05-22T11:58:00.067Z,1132
2019-05-22T11:59:00.090Z,1131.87
2019-05-22T12:00:00.090Z,1131.68
2019-05-22T12:01:00.081Z,1131.49
2019-05-22T12:02:00.088Z,1131.35
2019-05-22T12:03:00.164Z,1131.05
2019-05-22T12:04:00.084Z,1130.84
2019-05-22T12:05:00.093Z,1130.57
2019-05-22T12:06:00.093Z,1130.42
2019-05-22T12:07:00.099Z,1130.14
2019-05-22T12:08:00.091Z,1129.82
2019-05-22T12:09:00.137Z,1129.56
2019-05-22T12:10:00.113Z,1129.31
2019-05-22T12:11:00.133Z,1128.94
2019-05-22T12:12:00.114Z,1128.64
2019-05-22T12:13:00.107Z,1128.25
2019-05-22T12:14:00.126Z,1127.99
2019-05-22T12:15:00.121Z,1127.78
2019-05-22T12:16:00.107Z,1127.34
2019-05-22T12:17:00.092Z,1127.12
2019-05-22T12:18:00.117Z,1126.76
2019-05-22T12:19:00.125Z,1126.55
2019-05-22T12:20:00.143Z,1126.31
2019-05-22T12:21:00.116Z,1125.98
2019-05-22T12:22:00.122Z,1125.71
2019-05-22T12:23:00.128Z,1125.44
2019-05-22T12:24:00.096Z,1124.98
2019-05-22T12:25:00.106Z,1124.58
2019-05-22T12:26:00.146Z,1124.13
2019-05-22T12:27:00.137Z,1123.57
2019-05-22T12:28:00.125Z,1122.98
2019-05-22T12:29:00.200Z,1122.47
2019-05-22T12:30:00.138Z,1121.91
2019-05-22T12:31:00.175Z,1121.49
2019-05-22T12:32:00.573Z,1121.03
2019-05-22T12:33:00.209Z,1120.64
2019-05-22T12:34:00.146Z,1120.28